createdAt,value
2022-10-01T00:05:07.393Z,12.10
2022-10-01T00:10:29.291Z,12.03
2022-10-01T00:15:51.187Z,12.05
2022-10-01T00:21:16.365Z,12.01
2022-10-01T00:26:38.528Z,12.02
2022-10-01T00:32:00.548Z,12.08
2022-10-01T00:37:22.389Z,12.02
2022-10-01T00:42:44.184Z,11.98
2022-10-01T00:48:06.029Z,11.99
2022-10-01T00:53:27.861Z,12.00
2022-10-01T00:58:49.638Z,11.96
2022-10-01T01:04:11.525Z,12.05
2022-10-01T01:09:36.387Z,12.00
2022-10-01T01:15:33.008Z,12.01
2022-10-01T01:21:05.707Z,12.07
2022-10-01T01:26:45.465Z,12.01
2022-10-01T01:32:29.427Z,12.04
2022-10-01T01:37:59.103Z,11.99
2022-10-01T01:43:25.412Z,12.05
2022-10-01T01:48:51.469Z,12.01
2022-10-01T01:54:13.348Z,12.00
2022-10-01T01:59:35.972Z,11.99
2022-10-01T02:05:04.949Z,11.99
2022-10-01T02:10:48.517Z,11.91
2022-10-01T02:16:32.093Z,11.83
2022-10-01T02:22:00.118Z,11.83
2022-10-01T02:27:30.542Z,11.86
2022-10-01T02:32:54.368Z,11.79
2022-10-01T02:38:19.752Z,11.70
2022-10-01T02:43:55.203Z,11.67
2022-10-01T02:49:17.232Z,11.55
2022-10-01T02:55:04.750Z,11.42
2022-10-01T03:00:26.719Z,11.23
2022-10-01T03:05:48.500Z,11.34
2022-10-01T03:11:10.327Z,11.35
2022-10-01T03:16:32.692Z,11.35
2022-10-01T03:21:54.517Z,11.10
2022-10-01T03:27:16.804Z,11.21
2022-10-01T03:32:39.243Z,11.04
2022-10-01T03:38:01.031Z,10.98
2022-10-01T03:43:23.214Z,11.06
2022-10-01T03:48:45.042Z,10.95
2022-10-01T03:54:08.433Z,10.96
2022-10-01T03:59:30.231Z,10.95
2022-10-01T04:04:51.998Z,10.92
2022-10-01T04:10:13.911Z,10.80
2022-10-01T04:15:35.748Z,10.67
2022-10-01T04:20:57.633Z,10.62
2022-10-01T04:26:19.425Z,10.60
2022-10-01T04:31:41.212Z,10.49
2022-10-01T04:37:03.089Z,10.29
2022-10-01T04:42:24.846Z,10.21
2022-10-01T04:47:51.924Z,10.14
2022-10-01T04:53:13.726Z,10.18
2022-10-01T04:58:35.557Z,10.23
2022-10-01T05:03:57.426Z,10.29
2022-10-01T05:09:19.269Z,10.53
2022-10-01T05:14:41.117Z,10.63
2022-10-01T05:20:05.620Z,10.75
2022-10-01T05:25:27.474Z,10.85
2022-10-01T05:30:49.313Z,11.05
2022-10-01T05:36:11.098Z,11.11
2022-10-01T05:41:33.274Z,11.14
2022-10-01T05:46:55.302Z,11.24
2022-10-01T05:52:17.162Z,11.43
2022-10-01T05:57:39.014Z,11.59
2022-10-01T06:03:02.565Z,11.72
2022-10-01T06:08:24.679Z,11.93
2022-10-01T06:13:46.457Z,11.92
2022-10-01T06:19:08.594Z,11.82
2022-10-01T06:24:30.372Z,11.94
2022-10-01T06:29:52.188Z,11.93
2022-10-01T06:35:14.128Z,12.47
2022-10-01T06:40:36.495Z,12.95
2022-10-01T06:46:01.666Z,13.17
2022-10-01T06:51:23.466Z,13.93
2022-10-01T06:56:45.429Z,15.14
2022-10-01T07:07:33.941Z,15.80
2022-10-01T07:12:56.094Z,15.61
2022-10-01T07:18:17.860Z,15.70
2022-10-01T07:23:39.655Z,15.65
2022-10-01T07:29:01.480Z,15.87
2022-10-01T07:34:23.293Z,15.58
2022-10-01T07:39:45.072Z,15.77
2022-10-01T07:45:07.626Z,16.13
2022-10-01T07:50:30.425Z,16.06
2022-10-01T07:55:52.250Z,16.68
2022-10-01T08:01:14.404Z,18.88
2022-10-01T08:06:36.198Z,23.10
2022-10-01T08:11:58.081Z,20.34
2022-10-01T08:17:19.956Z,20.05
2022-10-01T08:22:42.509Z,24.44
2022-10-01T08:28:04.647Z,21.47
2022-10-01T08:33:26.640Z,23.51
2022-10-01T08:38:49.006Z,24.01
2022-10-01T08:44:18.956Z,24.36
2022-10-01T08:49:46.165Z,23.14
2022-10-01T08:55:16.126Z,25.83
2022-10-01T09:00:41.942Z,22.03
2022-10-01T09:06:24.591Z,23.95
2022-10-01T09:12:14.453Z,17.60
2022-10-01T09:17:58.514Z,17.14
2022-10-01T09:23:44.830Z,16.14
2022-10-01T09:29:11.538Z,15.05
2022-10-01T09:34:38.083Z,15.57
2022-10-01T09:40:14.376Z,14.04
2022-10-01T09:45:37.830Z,14.78
2022-10-01T09:51:54.739Z,14.74
2022-10-01T09:57:34.557Z,14.71
2022-10-01T10:02:56.487Z,14.81
2022-10-01T10:08:31.013Z,14.70
2022-10-01T10:14:02.776Z,14.31
2022-10-01T10:19:27.877Z,14.19
2022-10-01T10:24:49.733Z,14.16
2022-10-01T10:30:16.509Z,13.93
2022-10-01T10:35:38.324Z,14.13
2022-10-01T10:41:01.307Z,13.83
2022-10-01T10:46:27.866Z,14.09
2022-10-01T10:51:52.594Z,13.91
2022-10-01T10:57:19.621Z,13.82
2022-10-01T11:02:51.393Z,13.95
2022-10-01T11:08:20.021Z,13.43
2022-10-01T11:14:00.018Z,13.96
2022-10-01T11:19:40.187Z,14.15
2022-10-01T11:25:19.290Z,14.04
2022-10-01T11:30:56.829Z,14.22
2022-10-01T11:36:24.336Z,14.76
2022-10-01T11:41:54.823Z,15.07
2022-10-01T11:47:25.005Z,15.26
2022-10-01T11:53:09.495Z,15.27
2022-10-01T11:58:50.133Z,15.20
2022-10-01T12:04:25.007Z,15.39
2022-10-01T12:10:20.421Z,15.29
2022-10-01T12:16:00.909Z,15.02
2022-10-01T12:21:46.858Z,15.33
2022-10-01T12:27:26.819Z,15.37
2022-10-01T12:33:03.871Z,15.56
2022-10-01T12:38:54.873Z,15.88
2022-10-01T12:44:35.559Z,16.04
2022-10-01T12:50:15.637Z,15.57
2022-10-01T12:55:55.612Z,15.56
2022-10-01T13:01:35.823Z,15.46
2022-10-01T13:07:06.124Z,15.05
2022-10-01T13:12:55.864Z,14.57
2022-10-01T13:18:56.600Z,14.53
2022-10-01T13:24:34.924Z,14.58
2022-10-01T13:30:03.074Z,14.75
2022-10-01T13:35:36.512Z,14.86
2022-10-01T13:41:01.842Z,14.64
2022-10-01T13:46:26.644Z,14.88
2022-10-01T13:51:48.567Z,14.96
2022-10-01T13:57:31.585Z,14.94
2022-10-01T14:03:22.637Z,14.71
2022-10-01T14:09:06.627Z,14.62
2022-10-01T14:14:48.642Z,14.33
2022-10-01T14:20:30.439Z,14.52
2022-10-01T14:26:18.255Z,14.41
2022-10-01T14:31:58.526Z,14.34
2022-10-01T14:37:21.291Z,14.27
2022-10-01T14:42:43.372Z,14.16
2022-10-01T14:48:07.251Z,13.87
2022-10-01T14:53:33.445Z,13.83
2022-10-01T14:58:59.974Z,13.83
2022-10-01T15:04:22.044Z,13.70
2022-10-01T15:09:48.277Z,13.53
2022-10-01T15:15:19.446Z,13.48
2022-10-01T15:21:00.144Z,13.43
2022-10-01T15:26:25.334Z,13.35
2022-10-01T15:31:49.624Z,13.30
2022-10-01T15:37:21.071Z,13.32
2022-10-01T15:43:13.484Z,13.31
2022-10-01T15:48:35.748Z,13.15
2022-10-01T15:54:06.501Z,13.09
2022-10-01T15:59:28.674Z,13.02
2022-10-01T16:04:51.336Z,13.11
2022-10-01T16:10:39.407Z,13.01
2022-10-01T16:16:30.119Z,12.92
2022-10-01T16:22:15.075Z,12.95
2022-10-01T16:27:47.961Z,12.94
2022-10-01T16:33:10.275Z,12.76
2022-10-01T16:38:32.035Z,12.77
2022-10-01T16:43:56.237Z,12.65
2022-10-01T16:49:18.075Z,12.70
2022-10-01T16:54:39.855Z,12.75
2022-10-01T17:00:01.608Z,12.64
2022-10-01T17:05:29.424Z,12.83
2022-10-01T17:10:54.026Z,12.77
2022-10-01T17:16:15.876Z,12.58
2022-10-01T17:21:37.969Z,12.70
2022-10-01T17:26:59.763Z,12.65
2022-10-01T17:32:23.044Z,12.66
2022-10-01T17:37:44.824Z,12.66
2022-10-01T17:43:07.107Z,12.54
2022-10-01T17:48:29.037Z,12.69
2022-10-01T17:53:50.857Z,12.61
2022-10-01T17:59:12.714Z,12.69
2022-10-01T18:04:34.502Z,12.60
2022-10-01T18:09:56.346Z,12.55
2022-10-01T18:15:18.336Z,12.52
2022-10-01T18:20:40.171Z,12.55
2022-10-01T18:26:02.747Z,12.50
2022-10-01T18:31:27.167Z,12.46
2022-10-01T18:36:56.716Z,12.40
2022-10-01T18:42:27.218Z,12.41
2022-10-01T18:48:14.143Z,12.40
2022-10-01T18:54:05.937Z,12.41
2022-10-01T18:59:43.179Z,12.40
2022-10-01T19:05:36.406Z,12.31
2022-10-01T19:11:15.750Z,12.37
2022-10-01T19:16:54.651Z,12.30
2022-10-01T19:22:26.975Z,12.26
2022-10-01T19:28:04.956Z,12.18
2022-10-01T19:33:30.379Z,12.15
2022-10-01T19:38:54.743Z,12.16
2022-10-01T19:44:28.003Z,12.06
2022-10-01T19:49:55.367Z,12.18
2022-10-01T19:55:20.475Z,12.07
2022-10-01T20:00:42.909Z,12.22
2022-10-01T20:06:12.433Z,12.14
2022-10-01T20:12:03.536Z,12.00
2022-10-01T20:17:37.383Z,12.09
2022-10-01T20:23:26.102Z,12.00
2022-10-01T20:28:53.616Z,11.93
2022-10-01T20:35:01.632Z,11.79
2022-10-01T20:40:31.365Z,11.72
2022-10-01T20:45:54.748Z,11.74
2022-10-01T20:51:23.942Z,11.80
2022-10-01T20:57:01.870Z,11.77
2022-10-01T21:02:55.934Z,11.69
2022-10-01T21:08:26.627Z,11.69
2022-10-01T21:13:58.939Z,11.75
2022-10-01T21:19:51.704Z,11.72
2022-10-01T21:25:26.239Z,11.86
2022-10-01T21:31:02.434Z,11.93
2022-10-01T21:36:33.772Z,11.94
2022-10-01T21:42:17.427Z,11.95
2022-10-01T21:48:07.198Z,12.04
2022-10-01T21:53:57.199Z,12.08
2022-10-01T21:59:57.363Z,12.14
2022-10-01T22:05:38.358Z,12.23
2022-10-01T22:11:07.465Z,12.24
2022-10-01T22:16:39.825Z,12.32
2022-10-01T22:22:09.185Z,12.40
2022-10-01T22:27:44.069Z,12.32
2022-10-01T22:33:08.525Z,12.26
2022-10-01T22:38:39.401Z,12.21
2022-10-01T22:44:17.657Z,12.21
2022-10-01T22:49:53.268Z,12.05
2022-10-01T22:55:52.126Z,11.84
2022-10-01T23:01:46.228Z,11.88
2022-10-01T23:07:27.910Z,11.95
2022-10-01T23:12:55.396Z,11.98
2022-10-01T23:18:38.402Z,11.91
2022-10-01T23:24:24.638Z,11.80
2022-10-01T23:29:54.090Z,11.76
2022-10-01T23:35:19.728Z,11.73
2022-10-01T23:40:45.157Z,11.74
2022-10-01T23:46:25.539Z,11.64
2022-10-01T23:52:08.317Z,11.63
2022-10-01T23:57:37.289Z,11.72
